Time;durP1;ratioP1;P1;durP2;ratioP2;P2;SDS_P1;SDS_P2;PMS_P1;PMS_P2;Temp;Humidity;BMP_temperature;BMP_pressure;BME280_temperature;BME280_humidity;BME280_pressure;Samples;Min_cycle;Max_cycle;Signal;HPM_P1;HPM_P2
2024/04/09 00:00:50;;;;;;;11.60;8.87;;;18.00;99.90;;;;;;5524347;26;20258;-63
2024/04/09 00:03:19;;;;;;;15.17;8.80;;;18.10;99.90;;;;;;5529216;25;20251;-67
2024/04/09 00:05:45;;;;;;;12.93;8.27;;;18.20;99.90;;;;;;5525570;25;20302;-67
2024/04/09 00:08:10;;;;;;;14.10;7.43;;;18.20;99.90;;;;;;5536162;25;20956;-67
2024/04/09 00:10:37;;;;;;;12.37;8.00;;;18.20;99.90;;;;;;5522996;25;20240;-67
2024/04/09 00:13:06;;;;;;;13.23;7.37;;;18.20;99.90;;;;;;5526735;25;20253;-67
2024/04/09 00:15:36;;;;;;;21.90;7.67;;;18.20;99.90;;;;;;5525360;25;20580;-67
2024/04/09 00:18:11;;;;;;;15.07;8.03;;;18.30;99.90;;;;;;5523210;25;20561;-67
2024/04/09 00:20:44;;;;;;;10.60;7.50;;;18.30;99.90;;;;;;5532667;25;20536;-67
2024/04/09 00:23:12;;;;;;;15.10;8.27;;;18.30;99.90;;;;;;5527770;26;20526;-67
2024/04/09 00:25:39;;;;;;;15.20;8.10;;;18.30;99.90;;;;;;5526858;25;20513;-68
2024/04/09 00:28:05;;;;;;;13.30;8.57;;;18.30;99.90;;;;;;5527068;25;20991;-67
2024/04/09 00:30:30;;;;;;;10.83;7.83;;;18.30;99.90;;;;;;5533242;25;20536;-67
2024/04/09 00:32:56;;;;;;;16.40;7.73;;;18.30;99.90;;;;;;5532082;25;20436;-67
2024/04/09 00:35:22;;;;;;;9.90;7.03;;;18.30;99.90;;;;;;5541338;25;20651;-67
2024/04/09 00:37:52;;;;;;;13.60;6.33;;;18.30;99.90;;;;;;5535780;25;20231;-67
2024/04/09 00:40:29;;;;;;;10.80;7.03;;;18.30;99.90;;;;;;5528191;25;20236;-67
2024/04/09 00:42:57;;;;;;;17.67;7.60;;;18.30;99.90;;;;;;5537655;25;20440;-67
2024/04/09 00:45:23;;;;;;;12.53;6.63;;;18.30;99.90;;;;;;5538181;25;20570;-67
2024/04/09 00:47:50;;;;;;;15.17;6.20;;;18.40;99.90;;;;;;5537947;25;20452;-68
2024/04/09 00:50:19;;;;;;;11.40;6.40;;;18.40;99.90;;;;;;5543278;25;20449;-67
2024/04/09 00:52:48;;;;;;;16.20;6.37;;;18.60;99.90;;;;;;5541729;25;20504;-67
2024/04/09 00:55:15;;;;;;;9.83;7.00;;;18.70;99.90;;;;;;5537252;25;20439;-67
2024/04/09 00:57:48;;;;;;;16.30;6.30;;;18.80;99.90;;;;;;5547290;25;20477;-67
2024/04/09 01:00:16;;;;;;;19.20;5.80;;;18.80;99.90;;;;;;5560649;25;20567;-68
2024/04/09 01:02:42;;;;;;;15.17;5.93;;;18.90;95.20;;;;;;5539066;25;20829;-68
2024/04/09 01:05:10;;;;;;;19.10;6.47;;;19.10;94.60;;;;;;5506586;25;20456;-68
2024/04/09 01:07:37;;;;;;;18.43;5.47;;;19.30;93.60;;;;;;5526730;25;20222;-67
2024/04/09 01:10:04;;;;;;;17.00;5.83;;;19.50;91.90;;;;;;5510444;25;20443;-67
2024/04/09 01:12:30;;;;;;;10.37;5.50;;;19.70;95.60;;;;;;5537530;25;21036;-68
2024/04/09 01:14:56;;;;;;;12.67;5.80;;;19.80;97.10;;;;;;5545568;25;20600;-68
2024/04/09 01:17:24;;;;;;;10.00;6.33;;;19.90;97.30;;;;;;5545411;25;20853;-67
2024/04/09 01:19:49;;;;;;;9.03;5.87;;;19.90;99.50;;;;;;5537276;25;20799;-68
2024/04/09 01:22:15;;;;;;;14.90;5.97;;;19.90;97.90;;;;;;5550973;25;20440;-68
2024/04/09 01:24:41;;;;;;;12.00;5.90;;;19.90;96.90;;;;;;5543940;25;20235;-68
2024/04/09 01:27:12;;;;;;;10.93;5.73;;;19.90;94.30;;;;;;5543410;25;20231;-68
2024/04/09 01:29:39;;;;;;;9.70;5.47;;;19.90;93.70;;;;;;5549646;25;20235;-68
2024/04/09 01:32:06;;;;;;;12.97;5.20;;;19.90;93.20;;;;;;5520821;26;20845;-68
2024/04/09 01:34:35;;;;;;;11.10;6.17;;;19.90;92.90;;;;;;5538076;25;20447;-68
2024/04/09 01:37:04;;;;;;;8.73;4.90;;;19.90;92.30;;;;;;5547801;25;20433;-67
2024/04/09 01:39:35;;;;;;;12.63;5.43;;;19.90;91.80;;;;;;5553790;25;20511;-67
2024/04/09 01:42:01;;;;;;;15.77;5.50;;;19.90;92.10;;;;;;5528078;25;20508;-68
2024/04/09 01:44:27;;;;;;;14.10;5.47;;;19.90;92.20;;;;;;5537229;25;20506;-68
2024/04/09 01:46:53;;;;;;;11.47;5.13;;;19.90;91.50;;;;;;5513467;26;20446;-68
2024/04/09 01:49:23;;;;;;;11.47;5.10;;;19.90;91.40;;;;;;5549347;25;20239;-68
2024/04/09 01:51:49;;;;;;;11.13;5.37;;;19.90;91.60;;;;;;5530071;25;20228;-67
2024/04/09 01:54:15;;;;;;;13.77;5.20;;;19.90;93.50;;;;;;5526245;26;20824;-68
2024/04/09 01:56:40;;;;;;;12.00;4.93;;;19.90;92.60;;;;;;5550759;25;20443;-68
2024/04/09 01:59:06;;;;;;;14.03;5.60;;;19.90;93.40;;;;;;5555622;25;20229;-67
2024/04/09 02:01:33;;;;;;;11.20;6.73;;;19.90;93.60;;;;;;5564301;25;20227;-68
2024/04/09 02:03:59;;;;;;;18.43;7.07;;;19.80;94.00;;;;;;5557814;25;20242;-67
2024/04/09 02:06:26;;;;;;;9.30;5.30;;;19.80;95.20;;;;;;5538790;25;20560;-68
2024/04/09 02:08:52;;;;;;;13.37;5.40;;;19.80;95.50;;;;;;5559156;25;20231;-68
2024/04/09 02:11:18;;;;;;;10.03;5.93;;;19.70;95.90;;;;;;5560740;25;20791;-68
2024/04/09 02:13:47;;;;;;;10.27;5.07;;;19.70;97.10;;;;;;5563838;25;20226;-67
2024/04/09 02:16:15;;;;;;;13.60;5.30;;;19.60;97.80;;;;;;5560223;25;20500;-67
2024/04/09 02:18:42;;;;;;;12.47;5.57;;;19.60;98.00;;;;;;5512141;25;20559;-68
2024/04/09 02:21:09;;;;;;;7.97;5.50;;;19.60;99.10;;;;;;5559913;25;20504;-68
2024/04/09 02:23:39;;;;;;;12.43;5.80;;;19.60;99.00;;;;;;5532902;25;20501;-67
2024/04/09 02:26:05;;;;;;;12.13;5.27;;;19.50;99.80;;;;;;5557760;25;20842;-67
2024/04/09 02:28:32;;;;;;;7.80;5.97;;;19.50;99.90;;;;;;5527342;25;20510;-67
2024/04/09 02:30:59;;;;;;;10.00;5.20;;;19.50;99.90;;;;;;5564102;25;20219;-68
2024/04/09 02:33:25;;;;;;;11.10;5.73;;;19.40;99.90;;;;;;5563942;25;20427;-67
2024/04/09 02:35:59;;;;;;;8.57;5.13;;;19.40;99.90;;;;;;5563703;25;20424;-68
2024/04/09 02:38:26;;;;;;;9.03;5.20;;;19.40;99.90;;;;;;5563681;25;20548;-67
2024/04/09 02:40:52;;;;;;;10.53;5.97;;;19.40;99.90;;;;;;5530365;25;20851;-68
2024/04/09 02:43:20;;;;;;;9.10;5.63;;;19.30;99.90;;;;;;5525477;26;20883;-67
2024/04/09 02:45:46;;;;;;;11.97;5.50;;;19.30;99.90;;;;;;5494343;26;21027;-67
2024/04/09 02:48:12;;;;;;;11.23;5.27;;;19.30;99.90;;;;;;5525731;26;20441;-67
2024/04/09 02:50:38;;;;;;;9.00;6.27;;;19.20;99.90;;;;;;5493746;26;20489;-67
2024/04/09 02:53:03;;;;;;;19.20;6.00;;;19.20;99.90;;;;;;5525447;26;20258;-67
2024/04/09 02:55:29;;;;;;;11.50;6.20;;;19.20;99.90;;;;;;5526241;25;20274;-67
2024/04/09 02:57:55;;;;;;;7.80;5.60;;;19.20;99.90;;;;;;5498651;25;20239;-67
2024/04/09 03:00:20;;;;;;;6.93;5.90;;;19.20;99.90;;;;;;5562615;25;20762;-67
2024/04/09 03:02:53;;;;;;;8.30;5.60;;;19.20;99.90;;;;;;5559265;25;20215;-67
2024/04/09 03:05:27;;;;;;;8.53;5.10;;;19.20;99.90;;;;;;5488530;26;20248;-67
2024/04/09 03:07:53;;;;;;;13.07;5.70;;;19.10;99.90;;;;;;5489316;26;20949;-68
2024/04/09 03:10:19;;;;;;;7.50;5.47;;;19.10;99.90;;;;;;5501975;25;20497;-67
2024/04/09 03:12:45;;;;;;;8.30;5.30;;;19.10;99.90;;;;;;5526007;26;20223;-68
2024/04/09 03:15:10;;;;;;;7.97;5.20;;;19.10;99.90;;;;;;5524907;26;20285;-68
2024/04/09 03:17:37;;;;;;;10.40;5.10;;;19.10;99.90;;;;;;5526337;26;20230;-68
2024/04/09 03:20:04;;;;;;;8.87;5.00;;;19.10;99.90;;;;;;5525526;26;20589;-64
2024/04/09 03:22:30;;;;;;;9.30;5.37;;;19.00;99.90;;;;;;5526160;26;20519;-67
2024/04/09 03:24:56;;;;;;;7.50;6.10;;;19.00;99.90;;;;;;5526210;25;20872;-67
2024/04/09 03:27:21;;;;;;;13.33;5.87;;;19.00;99.90;;;;;;5524657;25;20232;-67
2024/04/09 03:29:50;;;;;;;10.87;5.30;;;19.00;99.90;;;;;;5562962;25;20241;-67
2024/04/09 03:32:16;;;;;;;10.27;5.60;;;18.90;99.90;;;;;;5562147;25;20230;-67
2024/04/09 03:34:42;;;;;;;8.10;6.40;;;18.90;99.90;;;;;;5562798;25;20939;-67
2024/04/09 03:37:07;;;;;;;13.20;6.20;;;18.90;99.90;;;;;;5562199;25;20214;-67
2024/04/09 03:39:34;;;;;;;7.53;5.93;;;18.90;99.90;;;;;;5562936;25;20215;-67
2024/04/09 03:42:00;;;;;;;9.43;5.17;;;18.90;99.90;;;;;;5535379;25;20227;-67
2024/04/09 03:44:26;;;;;;;7.60;5.37;;;18.90;99.90;;;;;;5491858;26;20559;-67
2024/04/09 03:46:52;;;;;;;8.77;6.10;;;18.80;99.90;;;;;;5492611;26;20583;-68
2024/04/09 03:49:17;;;;;;;10.60;5.57;;;18.80;99.90;;;;;;5525962;25;20441;-67
2024/04/09 03:51:43;;;;;;;7.30;5.20;;;18.80;99.90;;;;;;5536971;25;20566;-67
2024/04/09 03:54:10;;;;;;;11.43;4.80;;;18.80;99.90;;;;;;5528067;26;20315;-67
2024/04/09 03:56:36;;;;;;;6.33;4.50;;;18.70;99.90;;;;;;5528713;26;20321;-67
2024/04/09 03:59:02;;;;;;;9.50;4.50;;;18.70;99.90;;;;;;5526926;25;20452;-70
2024/04/09 04:01:28;;;;;;;6.93;4.47;;;18.70;99.90;;;;;;5495380;26;20228;-71
2024/04/09 04:03:53;;;;;;;6.80;4.53;;;18.70;99.90;;;;;;5495729;26;20231;-69
2024/04/09 04:06:19;;;;;;;9.00;4.40;;;18.70;99.90;;;;;;5540377;25;20562;-69
2024/04/09 04:08:45;;;;;;;6.40;4.80;;;18.70;99.90;;;;;;5527945;26;20224;-69
2024/04/09 04:11:13;;;;;;;7.43;4.47;;;18.70;99.90;;;;;;5527364;26;20615;-69
2024/04/09 04:13:39;;;;;;;8.30;5.93;;;18.70;99.90;;;;;;5528165;26;20501;-69
2024/04/09 04:16:13;;;;;;;11.93;5.90;;;18.70;99.90;;;;;;5528263;25;20520;-70
2024/04/09 04:18:40;;;;;;;7.90;6.73;;;18.60;99.90;;;;;;5528447;26;20424;-69
2024/04/09 04:21:09;;;;;;;7.03;5.43;;;18.60;99.90;;;;;;5527539;26;20432;-66
2024/04/09 04:23:34;;;;;;;7.63;5.93;;;18.60;99.90;;;;;;5515521;25;20459;-69
2024/04/09 04:26:04;;;;;;;7.30;5.07;;;18.60;99.90;;;;;;5565684;25;20431;-69
2024/04/09 04:28:31;;;;;;;7.17;5.20;;;18.50;99.90;;;;;;5560756;25;20227;-69
2024/04/09 04:30:58;;;;;;;8.37;4.90;;;18.40;99.90;;;;;;5565845;25;20431;-69
2024/04/09 04:33:24;;;;;;;13.83;5.63;;;18.20;99.90;;;;;;5539384;25;20492;-69
2024/04/09 04:35:51;;;;;;;8.63;5.80;;;18.20;99.90;;;;;;5528176;26;20432;-69
2024/04/09 04:38:17;;;;;;;8.27;6.10;;;18.20;99.90;;;;;;5495004;26;20216;-69
2024/04/09 04:40:47;;;;;;;8.00;6.00;;;18.20;99.90;;;;;;5528421;26;20425;-69
2024/04/09 04:43:16;;;;;;;7.83;5.80;;;18.20;99.90;;;;;;5527672;25;20437;-69
2024/04/09 04:45:45;;;;;;;6.97;5.47;;;18.20;99.90;;;;;;5527314;26;20457;-69
2024/04/09 04:48:16;;;;;;;7.80;4.97;;;18.20;99.90;;;;;;5527557;26;20424;-69
2024/04/09 04:50:42;;;;;;;8.97;5.33;;;18.20;99.90;;;;;;5528058;26;20862;-69
2024/04/09 04:53:08;;;;;;;6.20;5.70;;;18.20;99.90;;;;;;5527148;26;20509;-68
2024/04/09 04:55:34;;;;;;;5.97;5.30;;;18.30;99.90;;;;;;5495639;26;20460;-69
2024/04/09 04:58:01;;;;;;;9.53;5.47;;;18.20;99.90;;;;;;5528727;25;20331;-70
2024/04/09 05:00:28;;;;;;;8.37;5.97;;;18.20;99.90;;;;;;5527159;26;20283;-70
2024/04/09 05:02:54;;;;;;;7.90;5.67;;;18.20;99.90;;;;;;5495301;26;20771;-69
2024/04/09 05:05:20;;;;;;;10.00;4.70;;;18.20;99.90;;;;;;5526484;25;20452;-69
2024/04/09 05:07:48;;;;;;;10.33;5.00;;;18.30;99.90;;;;;;5527570;26;20266;-67
2024/04/09 05:10:14;;;;;;;5.70;4.90;;;18.20;99.90;;;;;;5526712;26;20236;-69
2024/04/09 05:12:42;;;;;;;11.00;5.60;;;18.30;99.90;;;;;;5527518;26;20542;-70
2024/04/09 05:15:09;;;;;;;6.80;5.10;;;18.20;99.90;;;;;;5503366;25;20235;-70
2024/04/09 05:17:35;;;;;;;7.47;6.00;;;18.20;99.90;;;;;;5564992;25;20435;-69
2024/04/09 05:20:09;;;;;;;7.63;5.60;;;18.10;99.90;;;;;;5564900;25;20424;-70
2024/04/09 05:22:57;;;;;;;6.10;5.50;;;18.10;99.90;;;;;;5551720;25;20441;-70
2024/04/09 05:25:23;;;;;;;11.50;5.70;;;18.00;99.90;;;;;;5527109;26;20995;-70
2024/04/09 05:27:48;;;;;;;7.50;5.17;;;17.90;99.90;;;;;;5540286;25;20447;-70
2024/04/09 05:30:14;;;;;;;5.50;4.70;;;17.90;99.90;;;;;;5558359;25;20492;-69
2024/04/09 05:32:44;;;;;;;7.57;5.47;;;17.80;99.90;;;;;;5526479;26;20744;-70
2024/04/09 05:35:11;;;;;;;6.07;5.07;;;17.80;99.90;;;;;;5526513;26;20263;-69
2024/04/09 05:37:37;;;;;;;5.33;4.73;;;17.80;99.90;;;;;;5526018;26;20514;-67
2024/04/09 05:40:10;;;;;;;5.10;4.60;;;17.70;99.90;;;;;;5527175;26;20557;-69
2024/04/09 05:42:44;;;;;;;7.30;5.37;;;17.70;99.90;;;;;;5505132;25;20443;-69
2024/04/09 05:45:11;;;;;;;6.07;5.13;;;17.70;99.90;;;;;;5561633;25;20519;-69
2024/04/09 05:47:37;;;;;;;5.77;4.80;;;17.80;99.90;;;;;;5524239;25;20449;-69
2024/04/09 05:50:04;;;;;;;6.80;5.00;;;17.70;99.90;;;;;;5526949;26;20527;-66
2024/04/09 05:52:31;;;;;;;7.97;7.20;;;17.70;99.90;;;;;;5493961;26;20449;-73
2024/04/09 05:54:57;;;;;;;8.80;5.90;;;17.80;99.90;;;;;;5536459;25;20504;-68
2024/04/09 05:57:23;;;;;;;8.00;4.20;;;17.90;99.90;;;;;;5558162;25;20588;-73
2024/04/09 05:59:49;;;;;;;6.50;5.27;;;17.80;99.90;;;;;;5564319;25;20442;-76
2024/04/09 06:02:14;;;;;;;6.83;5.23;;;17.80;99.90;;;;;;5530602;25;20556;-74
2024/04/09 06:04:40;;;;;;;9.83;6.50;;;17.80;99.90;;;;;;5564182;25;20210;-74
2024/04/09 06:07:06;;;;;;;8.93;5.87;;;17.80;99.90;;;;;;5537941;25;20719;-74
2024/04/09 06:09:31;;;;;;;5.20;4.60;;;17.90;99.90;;;;;;5526042;26;20569;-73
2024/04/09 06:11:58;;;;;;;4.40;4.10;;;18.10;99.90;;;;;;5526867;26;20738;-73
2024/04/09 06:14:23;;;;;;;6.47;4.60;;;18.10;99.90;;;;;;5525930;26;20244;-73
2024/04/09 06:16:52;;;;;;;6.83;4.07;;;18.10;99.90;;;;;;5531944;25;20506;-72
2024/04/09 06:19:18;;;;;;;5.03;4.40;;;18.20;99.90;;;;;;5524774;25;20228;-73
2024/04/09 06:21:43;;;;;;;4.03;3.73;;;18.20;99.90;;;;;;5493251;26;20484;-74
2024/04/09 06:24:09;;;;;;;6.17;4.67;;;18.20;99.90;;;;;;5494345;25;20233;-74
2024/04/09 06:26:35;;;;;;;4.10;3.80;;;18.20;99.90;;;;;;5553535;25;20232;-74
2024/04/09 06:29:01;;;;;;;6.70;4.37;;;18.30;99.90;;;;;;5521188;26;20652;-73
2024/04/09 06:31:27;;;;;;;5.43;4.90;;;18.30;99.90;;;;;;5559946;25;20495;-73
2024/04/09 06:33:52;;;;;;;5.47;4.50;;;18.30;99.90;;;;;;5535103;25;20232;-73
2024/04/09 06:36:18;;;;;;;5.33;4.20;;;18.40;99.90;;;;;;5524846;26;20208;-70
2024/04/09 06:38:44;;;;;;;5.30;4.80;;;18.40;99.90;;;;;;5524233;25;20228;-73
2024/04/09 06:41:10;;;;;;;6.10;4.30;;;18.40;99.90;;;;;;5525955;26;20606;-73
2024/04/09 06:43:37;;;;;;;4.47;4.17;;;18.50;99.90;;;;;;5523924;26;20712;-73
2024/04/09 06:46:04;;;;;;;4.57;3.97;;;18.50;99.90;;;;;;5529250;25;20637;-72
2024/04/09 06:48:30;;;;;;;5.13;4.03;;;18.60;99.90;;;;;;5525417;26;20504;-72
2024/04/09 06:50:56;;;;;;;6.10;4.40;;;18.60;99.90;;;;;;5526150;26;20550;-72
2024/04/09 06:53:21;;;;;;;5.10;4.70;;;18.70;99.90;;;;;;5525331;26;20227;-72
2024/04/09 06:55:48;;;;;;;4.57;4.17;;;18.80;99.90;;;;;;5526081;26;20220;-72
2024/04/09 06:58:14;;;;;;;8.03;4.83;;;18.90;99.90;;;;;;5525396;26;20220;-72
2024/04/09 07:00:40;;;;;;;4.40;4.00;;;18.90;99.90;;;;;;5525420;26;20979;-72
2024/04/09 07:03:07;;;;;;;6.50;5.90;;;18.90;99.90;;;;;;5525848;26;20554;-73
2024/04/09 07:05:33;;;;;;;7.00;6.40;;;18.90;99.90;;;;;;5527477;25;20315;-73
2024/04/09 07:08:00;;;;;;;7.50;7.00;;;18.90;99.90;;;;;;5525810;26;20449;-73
2024/04/09 07:10:27;;;;;;;7.07;6.00;;;18.90;99.90;;;;;;5525131;26;20440;-72
2024/04/09 07:12:53;;;;;;;4.00;3.80;;;18.80;99.90;;;;;;5526081;26;20476;-73
2024/04/09 07:15:25;;;;;;;4.63;4.33;;;18.70;99.90;;;;;;5540446;25;20571;-72
2024/04/09 07:17:51;;;;;;;4.00;3.80;;;18.70;99.90;;;;;;5530344;25;20541;-73
2024/04/09 07:20:17;;;;;;;3.90;3.70;;;18.60;99.90;;;;;;5562393;25;20990;-71
2024/04/09 07:22:43;;;;;;;3.93;3.30;;;18.50;99.90;;;;;;5532144;25;20453;-72
2024/04/09 07:25:10;;;;;;;4.97;3.63;;;18.40;99.90;;;;;;5526610;25;20223;-72
2024/04/09 07:27:36;;;;;;;3.50;3.20;;;18.30;99.90;;;;;;5523844;26;20224;-62
2024/04/09 07:30:03;;;;;;;3.33;3.13;;;18.30;99.90;;;;;;5525053;26;20448;-63
2024/04/09 07:32:29;;;;;;;3.60;3.33;;;18.10;99.90;;;;;;5524607;25;20429;-62
2024/04/09 07:34:55;;;;;;;3.30;3.20;;;17.90;99.90;;;;;;5524954;25;20845;-62
2024/04/09 07:37:21;;;;;;;3.00;2.80;;;17.70;99.90;;;;;;5524399;26;20232;-62
2024/04/09 07:39:46;;;;;;;2.90;2.80;;;17.50;99.90;;;;;;5525244;26;20258;-62
2024/04/09 07:42:12;;;;;;;3.80;3.60;;;17.30;99.90;;;;;;5525411;26;20432;-62
2024/04/09 07:44:38;;;;;;;4.60;4.30;;;17.10;99.90;;;;;;5522805;25;20557;-62
2024/04/09 07:47:04;;;;;;;3.77;3.67;;;17.00;99.90;;;;;;5525265;26;20232;-62
2024/04/09 07:49:30;;;;;;;4.07;3.30;;;16.90;99.90;;;;;;5524508;26;20241;-64
2024/04/09 07:51:56;;;;;;;3.93;3.63;;;16.70;99.90;;;;;;5524919;25;20274;-64
2024/04/09 07:54:22;;;;;;;3.80;3.57;;;16.70;99.90;;;;;;5524032;26;20846;-64
2024/04/09 07:56:48;;;;;;;3.40;3.30;;;16.60;99.90;;;;;;5524642;26;20240;-64
2024/04/09 07:59:13;;;;;;;4.20;4.00;;;16.50;99.90;;;;;;5524953;25;20232;-64
2024/04/09 08:01:39;;;;;;;3.90;3.80;;;16.40;99.90;;;;;;5524056;26;20574;-64
2024/04/09 08:04:05;;;;;;;3.40;3.20;;;16.30;99.90;;;;;;5524936;25;20236;-65
2024/04/09 08:06:33;;;;;;;3.87;3.67;;;16.30;99.90;;;;;;5491640;26;20280;-64
2024/04/09 08:08:59;;;;;;;3.60;3.40;;;16.30;99.90;;;;;;5524610;26;20282;-63
2024/04/09 08:11:25;;;;;;;3.63;3.43;;;16.20;99.90;;;;;;5542543;25;20454;-63
2024/04/09 08:13:51;;;;;;;4.83;3.70;;;16.20;99.90;;;;;;5562148;25;20475;-62
2024/04/09 08:16:16;;;;;;;3.50;3.40;;;16.20;99.90;;;;;;5561980;25;20227;-63
2024/04/09 08:18:42;;;;;;;4.23;3.93;;;16.10;99.90;;;;;;5561494;25;20219;-63
2024/04/09 08:21:10;;;;;;;4.00;3.70;;;16.10;99.90;;;;;;5561989;25;20241;-63
2024/04/09 08:23:36;;;;;;;4.63;4.23;;;16.10;99.90;;;;;;5561263;25;20278;-63
2024/04/09 08:26:01;;;;;;;4.47;4.17;;;16.00;99.90;;;;;;5561951;25;20873;-63
2024/04/09 08:28:27;;;;;;;3.90;3.70;;;16.00;99.90;;;;;;5528140;25;20431;-63
2024/04/09 08:30:53;;;;;;;4.80;4.43;;;15.90;99.90;;;;;;5562018;25;20223;-63
2024/04/09 08:33:20;;;;;;;5.17;4.37;;;15.80;99.90;;;;;;5561854;25;20245;-63
2024/04/09 08:35:49;;;;;;;9.83;4.67;;;15.70;99.90;;;;;;5560967;25;20942;-63
2024/04/09 08:38:17;;;;;;;5.07;4.70;;;15.70;99.90;;;;;;5561517;25;20841;-63
2024/04/09 08:40:43;;;;;;;6.80;4.90;;;15.70;99.90;;;;;;5523842;25;20509;-63
2024/04/09 08:43:09;;;;;;;5.30;4.90;;;15.70;99.90;;;;;;5560241;25;20981;-63
2024/04/09 08:45:36;;;;;;;6.90;6.40;;;15.70;99.90;;;;;;5562398;25;20516;-63
2024/04/09 08:48:04;;;;;;;6.23;5.83;;;15.70;99.90;;;;;;5565560;25;20758;-62
2024/04/09 08:50:31;;;;;;;6.77;6.33;;;15.70;99.90;;;;;;5564703;25;20442;-63
2024/04/09 08:52:58;;;;;;;7.07;6.40;;;15.60;99.90;;;;;;5565505;25;20515;-63
2024/04/09 08:55:24;;;;;;;7.77;7.17;;;15.60;99.90;;;;;;5564658;25;20436;-63
2024/04/09 08:57:49;;;;;;;6.43;6.00;;;15.60;99.90;;;;;;5557913;25;20447;-63
2024/04/09 09:00:16;;;;;;;6.90;6.23;;;15.60;99.90;;;;;;5560748;25;20557;-63
2024/04/09 09:02:43;;;;;;;8.53;6.77;;;15.60;99.90;;;;;;5564633;25;20643;-63
2024/04/09 09:05:19;;;;;;;7.50;6.90;;;15.50;99.90;;;;;;5565240;25;20430;-62
2024/04/09 09:07:57;;;;;;;6.27;5.77;;;15.50;99.90;;;;;;5564474;25;20950;-63
2024/04/09 09:10:22;;;;;;;6.67;5.97;;;15.40;99.90;;;;;;5565235;25;20503;-62
2024/04/09 09:13:02;;;;;;;5.50;5.00;;;15.30;99.90;;;;;;5565073;25;20439;-63
2024/04/09 09:15:28;;;;;;;4.80;4.40;;;15.30;99.90;;;;;;5564305;25;20463;-63
2024/04/09 09:17:55;;;;;;;4.57;4.17;;;15.20;99.90;;;;;;5565286;25;20436;-62
2024/04/09 09:20:22;;;;;;;4.00;3.70;;;15.10;99.90;;;;;;5565497;25;20997;-63
2024/04/09 09:22:48;;;;;;;4.80;4.40;;;15.10;99.90;;;;;;5564665;25;20442;-63
2024/04/09 09:25:16;;;;;;;4.50;4.10;;;15.10;99.90;;;;;;5565279;25;20475;-63
2024/04/09 09:27:45;;;;;;;3.77;3.57;;;15.10;99.90;;;;;;5557851;25;20442;-62
2024/04/09 09:30:12;;;;;;;3.70;3.40;;;15.10;99.90;;;;;;5562523;25;20515;-63
2024/04/09 09:32:58;;;;;;;4.20;3.43;;;15.10;99.90;;;;;;5564203;25;20423;-63
2024/04/09 09:35:24;;;;;;;3.70;3.40;;;15.20;99.90;;;;;;5564626;25;20952;-63
2024/04/09 09:37:53;;;;;;;3.57;2.90;;;15.10;99.90;;;;;;5564634;25;20825;-63
2024/04/09 09:40:20;;;;;;;2.57;2.47;;;15.10;99.90;;;;;;5564758;25;20434;-63
2024/04/09 09:42:47;;;;;;;2.77;2.67;;;15.10;99.90;;;;;;5558366;25;20463;-63
2024/04/09 09:45:14;;;;;;;3.00;2.90;;;15.10;99.90;;;;;;5531600;25;20827;-63
2024/04/09 09:47:41;;;;;;;3.10;2.90;;;15.00;99.90;;;;;;5531085;25;20505;-63
2024/04/09 09:50:11;;;;;;;2.60;2.23;;;15.00;99.90;;;;;;5564151;25;20482;-63
2024/04/09 09:52:40;;;;;;;2.40;2.30;;;15.00;99.90;;;;;;5563862;25;20502;-63
2024/04/09 09:55:06;;;;;;;2.77;2.57;;;15.00;99.90;;;;;;5564387;25;20434;-62
2024/04/09 09:57:37;;;;;;;3.23;3.00;;;14.90;99.90;;;;;;5563767;25;20938;-63
2024/04/09 10:00:09;;;;;;;3.97;3.60;;;14.90;99.90;;;;;;5564456;25;20482;-62
2024/04/09 10:02:37;;;;;;;4.43;3.10;;;14.90;99.90;;;;;;5563627;25;20468;-62
2024/04/09 10:05:04;;;;;;;7.30;3.03;;;14.90;99.90;;;;;;5564276;25;20472;-63
2024/04/09 10:07:31;;;;;;;2.60;2.40;;;14.80;99.90;;;;;;5563662;25;20427;-62
2024/04/09 10:09:57;;;;;;;2.50;2.40;;;14.80;99.90;;;;;;5556315;25;20435;-62
2024/04/09 10:12:28;;;;;;;2.90;2.70;;;14.80;99.90;;;;;;5561960;25;20869;-62
2024/04/09 10:15:03;;;;;;;2.97;2.67;;;14.80;99.90;;;;;;5563687;25;20273;-62
2024/04/09 10:18:04;;;;;;;2.63;2.03;;;14.80;99.90;;;;;;5563612;25;20478;-63
2024/04/09 10:20:35;;;;;;;2.90;2.70;;;14.70;99.90;;;;;;5563545;25;20473;-63
2024/04/09 10:23:03;;;;;;;3.60;3.40;;;14.70;99.90;;;;;;5564215;25;20432;-62
2024/04/09 10:25:36;;;;;;;3.90;3.60;;;14.60;99.90;;;;;;5557826;25;20454;-63
2024/04/09 10:28:10;;;;;;;2.00;1.90;;;14.70;99.90;;;;;;5563855;25;20554;-62
2024/04/09 10:30:42;;;;;;;2.40;2.30;;;14.90;99.90;;;;;;5563535;25;20415;-63
2024/04/09 10:33:08;;;;;;;2.47;2.37;;;14.90;99.90;;;;;;5563766;25;20426;-62
2024/04/09 10:35:34;;;;;;;2.37;2.10;;;14.90;99.90;;;;;;5555589;25;20568;-63
2024/04/09 10:38:04;;;;;;;2.40;2.20;;;14.90;99.90;;;;;;5523051;26;20523;-63
2024/04/09 10:40:31;;;;;;;2.53;2.30;;;15.00;99.90;;;;;;5522942;25;20539;-63
2024/04/09 10:43:00;;;;;;;2.00;1.90;;;14.90;99.90;;;;;;5525516;26;20443;-62
2024/04/09 10:45:26;;;;;;;3.03;2.03;;;14.90;99.90;;;;;;5525542;26;20514;-62
2024/04/09 10:47:51;;;;;;;2.47;2.27;;;15.00;99.90;;;;;;5524815;26;20528;-62
2024/04/09 10:50:17;;;;;;;2.40;2.30;;;15.00;99.90;;;;;;5525248;26;20339;-63
2024/04/09 10:52:43;;;;;;;3.07;2.40;;;15.10;99.90;;;;;;5524134;26;20235;-63
2024/04/09 10:55:13;;;;;;;2.50;2.30;;;15.00;99.90;;;;;;5525648;26;20246;-62
2024/04/09 10:57:39;;;;;;;2.20;2.10;;;15.00;99.90;;;;;;5525361;26;20253;-62
2024/04/09 11:00:12;;;;;;;2.20;2.10;;;15.10;99.90;;;;;;5526244;26;20488;-62
2024/04/09 11:02:39;;;;;;;2.90;2.70;;;15.20;99.90;;;;;;5524063;26;20425;-63
2024/04/09 11:05:06;;;;;;;2.57;2.47;;;15.30;99.90;;;;;;5525990;26;20786;-62
2024/04/09 11:07:34;;;;;;;3.07;2.87;;;15.30;99.90;;;;;;5525245;26;20444;-63
2024/04/09 11:10:01;;;;;;;3.00;2.90;;;15.40;99.90;;;;;;5548482;25;20855;-63
2024/04/09 11:12:28;;;;;;;3.47;3.17;;;15.50;99.90;;;;;;5563235;25;20427;-61
2024/04/09 11:14:56;;;;;;;3.37;3.17;;;15.40;99.90;;;;;;5562261;25;21268;-65
2024/04/09 11:17:22;;;;;;;2.90;2.80;;;15.40;99.90;;;;;;5563409;25;20472;-65
2024/04/09 11:19:48;;;;;;;2.63;2.50;;;15.30;99.90;;;;;;5524512;25;20458;-65
2024/04/09 11:22:14;;;;;;;3.20;2.90;;;15.30;99.90;;;;;;5563341;25;20437;-64
2024/04/09 11:24:41;;;;;;;3.10;3.00;;;15.10;99.90;;;;;;5562307;25;21005;-65
2024/04/09 11:27:09;;;;;;;3.00;2.80;;;15.10;99.90;;;;;;5563066;25;20520;-64
2024/04/09 11:29:35;;;;;;;3.00;2.80;;;15.00;99.90;;;;;;5562140;25;20535;-65
2024/04/09 11:32:02;;;;;;;3.13;2.13;;;14.90;99.90;;;;;;5556172;25;20453;-65
2024/04/09 11:34:31;;;;;;;2.43;2.30;;;15.00;99.90;;;;;;5562993;25;20536;-65
2024/04/09 11:36:59;;;;;;;2.50;2.30;;;15.10;99.90;;;;;;5562767;25;20506;-65
2024/04/09 11:39:25;;;;;;;2.40;2.30;;;15.10;99.90;;;;;;5562757;25;20491;-65
2024/04/09 11:41:53;;;;;;;2.60;2.40;;;15.20;99.90;;;;;;5554603;25;20591;-65
2024/04/09 11:44:22;;;;;;;2.30;2.20;;;15.30;99.90;;;;;;5562652;25;20435;-65
2024/04/09 11:46:48;;;;;;;2.30;2.20;;;15.40;99.90;;;;;;5562032;25;20486;-65
2024/04/09 11:49:15;;;;;;;3.17;2.83;;;15.60;99.90;;;;;;5562408;25;20431;-65
2024/04/09 11:51:41;;;;;;;2.50;2.30;;;15.50;99.90;;;;;;5561734;25;20934;-65
2024/04/09 11:54:08;;;;;;;3.40;1.90;;;15.60;99.90;;;;;;5563040;25;20487;-65
2024/04/09 11:56:38;;;;;;;3.47;2.10;;;15.80;99.90;;;;;;5561824;25;20427;-65
2024/04/09 11:59:07;;;;;;;2.60;2.40;;;15.80;99.90;;;;;;5562667;25;20505;-65
2024/04/09 12:01:34;;;;;;;2.40;1.77;;;15.90;99.90;;;;;;5561847;25;20528;-65
2024/04/09 12:04:00;;;;;;;2.27;2.13;;;15.90;98.60;;;;;;5562028;25;20509;-65
2024/04/09 12:06:26;;;;;;;2.00;1.90;;;16.00;98.60;;;;;;5561852;25;20540;-65
2024/04/09 12:08:54;;;;;;;2.27;2.13;;;15.90;97.20;;;;;;5557308;25;20770;-64
2024/04/09 12:11:20;;;;;;;2.63;2.30;;;15.90;96.60;;;;;;5561749;25;20322;-65
2024/04/09 12:13:46;;;;;;;4.23;2.00;;;16.10;96.20;;;;;;5563232;25;20777;-65
2024/04/09 12:16:11;;;;;;;4.27;2.20;;;16.20;97.00;;;;;;5566423;25;20218;-65
2024/04/09 12:18:37;;;;;;;2.30;2.10;;;16.60;98.50;;;;;;5565505;25;20575;-66
2024/04/09 12:21:04;;;;;;;1.80;1.70;;;16.80;95.00;;;;;;5565931;25;20258;-65
2024/04/09 12:23:30;;;;;;;3.27;2.23;;;17.10;95.50;;;;;;5565860;25;20475;-65
2024/04/09 12:25:57;;;;;;;2.90;2.70;;;17.30;93.60;;;;;;5565319;25;20424;-65
2024/04/09 12:28:22;;;;;;;2.63;2.50;;;17.20;91.50;;;;;;5565802;25;20532;-65
2024/04/09 12:30:48;;;;;;;6.00;2.30;;;17.10;90.40;;;;;;5565015;25;20946;-66
2024/04/09 12:33:14;;;;;;;4.20;2.60;;;17.00;90.80;;;;;;5565589;25;20261;-65
2024/04/09 12:35:40;;;;;;;2.93;2.70;;;17.20;91.30;;;;;;5564719;25;20218;-65
2024/04/09 12:38:06;;;;;;;2.67;2.57;;;17.10;91.00;;;;;;5565576;25;20227;-65
2024/04/09 12:40:31;;;;;;;1.90;1.80;;;17.20;90.60;;;;;;5560773;25;20451;-65
2024/04/09 12:42:57;;;;;;;2.10;1.83;;;17.20;90.00;;;;;;5564709;25;20459;-65
2024/04/09 12:45:23;;;;;;;3.00;2.00;;;17.30;92.00;;;;;;5560598;25;20251;-65